Washington, DC (20522)

4:14 PM EDT on April 26, 2015 (GMT -0400)
highgate-roslyn | | Change Station
CLOSE
Current Station
Personal Weather Station
Location: Arlington, VA
Elevation: 180 ft
Nearby Weather Stations

Elev 180 ft 38.90 °N, 77.07 °W | Updated 29 seconds ago

Mostly Cloudy
Mostly Cloudy
70.5 °F
Feels Like 75 °F
N
0.9
Wind Variable Wind from SSW
Gusts 2.5 mph

Today
High -- | Low -- °F
--% Chance of Precip.
Yesterday
High -- | Low -- °F
Precip. -- in
6:16 AM 7:55 PM
First Quarter, 58% visible
Pressure 29.69 in
Visibility 10.0 miles
Clouds Few 7500 ft
Scattered Clouds 25000 ft
Heat Index 75 °F
Dew Point 29 °F
Humidity 21%
Rainfall 0.00 in
Snow Depth Not available.
UV 2.0 out of 12
Pollen 7.10 out of 12
Air Quality Not available.
Flu Activity Local Activity
METAR KDCA 261952Z 05006KT 10SM FEW075 SCT250 18/01 A2968 RMK AO2 SLP052 T01830011

More Conditions Fewer Conditions

Pressure 29.69 in
Visibility 10.0 miles
Clouds Few 7500 ft
Scattered Clouds 25000 ft
Heat Index 75 °F
Dew Point 29 °F
Humidity 21%
Rainfall 0.00 in
Snow Depth Not available.
UV 2.0 out of 12
Pollen 7.10 out of 12
Air Quality Not available.
Flu Activity Local Activity
METAR KDCA 261952Z 05006KT 10SM FEW075 SCT250 18/01 A2968 RMK AO2 SLP052 T01830011

More Conditions Fewer Conditions

The full scope of the disaster following a powerful 7.8-magnitude earthquake in Nepal may not come into view for days, but global charities are already sending emergency aid. Click to see how you can help.

10-Day Weather Forecast

Almanac

Astronomy

Apr. 26, 2015 Rise Set
Actual Time
Civil Twilight
Nautical Twilight
Astronomical Twilight
Moon
Length of Visible Light
Length of Day
Tomorrow will be .
, % of the Moon is Illuminated

Today's Extremes

State Highs State Lows

Community

WunderPhotos

Upload Photos

1,817,109 photos uploaded!

WunderBlogs® & News

Nearby

Air Quality

  Air Quality AQ Index Pollutant
Not available.

Snow Depth

Station Depth Elevation

Earthquake Activity

City Distance Mag. Time & Date
Minimum magnitude displayed is 2.5.

Coastal Water Temperatures

Place Temperature

Stations

Nearby Weather Stations

Station Location Temp. Windchill Dew Point Humidity Wind Precip. Elev Updated Type